Terminal Aerodrome Forecast
Issued by NWS

Home | Current Version | Previous Version | Text Only | Print | Product List | Glossary On
Versions: 1 2 3 4 5 6 7 8 9 10 11 12 13 14 15 16 17 18 19 20 21 22 23 24 25 26 27 28
000
FTUS43 KGRB 250600 AAA
TAFAUW
TAF AMD
KAUW 250627Z 2506/2606 25007KT 6SM BR BKN006 OVC008
      TEMPO 2506/2508 2SM BR OVC004
     FM250900 28009KT 6SM BR SCT012 WS012/30035KT
     FM251500 29014G24KT P6SM SKC
     FM252300 29008KT P6SM SKC=

USA.gov is the U.S. government's official web portal to all federal, state and local government web resources and services.